Patterson, Louisiana
Current Conditions -  °F | °C
As of 10:35 AM on Saturday 22 Nov 2014 (Local Time) from KPTN Reporting Station
Clear Clear  
Wind Chill: 64°   Ceiling: Unl
Heat Index: 64°   Visibility: 10mi
Dew Point: 57°   Wind: 10mph
Humidity: 77%   Direction: 70°ENE
Pressure: 30.18"   Gusts: NA
Location:  29.69°N, 91.3°W
Report Text: KPTN 221635Z AUTO 07009KT 10SM CLR 18/14 A3018 RMK AO1
Loading
Personal Weather Stations






























Interactive Weather Map New forecast layout! Learn more

10-Day Weather Forecast

Advertisements
Track Severe Weather on mobile